createdAt,value
2022-08-03T00:00:21.778Z,25.53
2022-08-03T00:01:21.776Z,25.78
2022-08-03T00:02:21.802Z,25.84
2022-08-03T00:03:21.830Z,25.86
2022-08-03T00:04:21.751Z,25.94
2022-08-03T00:05:22.730Z,25.68
2022-08-03T00:06:21.744Z,25.51
2022-08-03T00:07:21.722Z,25.16
2022-08-03T00:08:21.730Z,24.60
2022-08-03T00:09:21.692Z,24.06
2022-08-03T00:10:21.665Z,24.04
2022-08-03T00:11:21.688Z,23.80
2022-08-03T00:12:21.693Z,23.61
2022-08-03T00:13:21.646Z,23.78
2022-08-03T00:14:21.653Z,23.81
2022-08-03T00:15:21.622Z,24.43
2022-08-03T00:16:21.611Z,24.63
2022-08-03T00:17:21.620Z,24.75
2022-08-03T00:18:21.580Z,25.13
2022-08-03T00:19:21.561Z,25.09
2022-08-03T00:20:21.604Z,25.10
2022-08-03T00:21:21.576Z,25.12
2022-08-03T00:22:21.524Z,25.48
2022-08-03T00:23:21.532Z,25.80
2022-08-03T00:24:21.510Z,25.99
2022-08-03T00:25:21.494Z,26.21
2022-08-03T00:26:21.476Z,25.95
2022-08-03T00:27:21.485Z,25.91
2022-08-03T00:28:21.470Z,25.94
2022-08-03T00:29:21.449Z,25.68
2022-08-03T00:30:21.433Z,25.22
2022-08-03T00:31:29.686Z,24.38
2022-08-03T00:32:22.600Z,23.56
2022-08-03T00:33:21.428Z,22.72
2022-08-03T00:34:29.854Z,22.43
2022-08-03T00:35:36.470Z,22.22
2022-08-03T00:36:22.370Z,22.40
2022-08-03T00:37:21.365Z,22.77
2022-08-03T00:38:22.367Z,23.17
2022-08-03T00:39:21.331Z,23.32
2022-08-03T00:40:21.329Z,23.27
2022-08-03T00:41:21.322Z,23.38
2022-08-03T00:42:21.301Z,23.45
2022-08-03T00:43:21.289Z,23.09
2022-08-03T00:44:21.315Z,22.82
2022-08-03T00:45:21.271Z,23.02
2022-08-03T00:46:22.027Z,23.48
2022-08-03T00:47:21.270Z,23.81
2022-08-03T00:48:33.341Z,23.96
2022-08-03T00:49:22.312Z,24.08
2022-08-03T00:50:21.200Z,24.08
2022-08-03T00:51:21.220Z,24.07
2022-08-03T00:52:21.274Z,24.35
2022-08-03T00:53:21.192Z,24.50
2022-08-03T00:54:21.193Z,24.62
2022-08-03T00:55:21.158Z,24.84
2022-08-03T00:56:21.127Z,24.87
2022-08-03T00:57:21.139Z,24.63
2022-08-03T00:58:21.107Z,24.50
2022-08-03T00:59:21.108Z,23.86
2022-08-03T01:00:21.106Z,23.30
2022-08-03T01:01:21.154Z,22.65
2022-08-03T01:02:21.062Z,21.91
2022-08-03T01:03:21.062Z,21.06
2022-08-03T01:04:21.063Z,20.05
2022-08-03T01:05:21.056Z,18.98
2022-08-03T01:06:21.012Z,17.82
2022-08-03T01:07:21.007Z,16.41
2022-08-03T01:08:20.984Z,15.23
2022-08-03T01:09:21.005Z,14.31
2022-08-03T01:10:20.989Z,13.61
2022-08-03T01:11:20.973Z,13.11
2022-08-03T01:12:20.950Z,12.77
2022-08-03T01:14:03.536Z,12.50
2022-08-03T01:14:21.941Z,12.49
2022-08-03T01:15:20.921Z,12.48
2022-08-03T01:16:20.917Z,12.48
2022-08-03T01:17:21.883Z,12.50
2022-08-03T01:18:20.875Z,12.43
2022-08-03T01:19:20.863Z,12.44
2022-08-03T01:20:20.909Z,12.38
2022-08-03T01:21:20.853Z,12.38
2022-08-03T01:22:20.823Z,12.40
2022-08-03T01:23:20.832Z,12.40
2022-08-03T01:24:20.808Z,12.51
2022-08-03T01:25:20.817Z,12.63
2022-08-03T01:26:20.789Z,12.89
2022-08-03T01:27:20.765Z,13.02
2022-08-03T01:28:20.756Z,13.24
2022-08-03T01:29:20.752Z,13.42
2022-08-03T01:30:20.751Z,13.50
2022-08-03T01:31:20.727Z,13.60
2022-08-03T01:32:53.348Z,13.83
2022-08-03T01:33:21.698Z,13.98
2022-08-03T01:34:20.704Z,14.12
2022-08-03T01:35:20.702Z,14.38
2022-08-03T01:36:20.676Z,14.58
2022-08-03T01:37:20.656Z,14.88
2022-08-03T01:38:20.641Z,15.32
2022-08-03T01:39:20.658Z,15.58
2022-08-03T01:40:20.651Z,15.74
2022-08-03T01:41:20.626Z,15.79
2022-08-03T01:42:20.594Z,15.80
2022-08-03T01:43:55.165Z,15.90
2022-08-03T01:44:30.155Z,15.46
2022-08-03T01:45:21.580Z,14.99
2022-08-03T01:46:20.585Z,14.47
2022-08-03T01:47:20.544Z,13.82
2022-08-03T01:48:20.526Z,13.24
2022-08-03T01:49:20.583Z,12.75
2022-08-03T01:50:20.538Z,12.36
2022-08-03T01:51:20.510Z,12.04
2022-08-03T01:52:20.625Z,11.71
2022-08-03T01:53:20.490Z,11.44
2022-08-03T01:54:20.468Z,11.09
2022-08-03T01:55:20.451Z,10.68
2022-08-03T01:56:20.444Z,10.36
2022-08-03T01:57:20.459Z,10.18
2022-08-03T01:58:20.408Z,9.86
2022-08-03T01:59:20.409Z,9.73
2022-08-03T02:00:20.412Z,9.56
2022-08-03T02:01:20.448Z,9.47
2022-08-03T02:02:34.089Z,9.54
2022-08-03T02:03:21.351Z,9.62
2022-08-03T02:04:20.353Z,9.77
2022-08-03T02:05:20.337Z,10.07
2022-08-03T02:07:01.479Z,10.44
2022-08-03T02:07:21.320Z,10.78
2022-08-03T02:08:20.301Z,11.06
2022-08-03T02:09:20.294Z,11.42
2022-08-03T02:10:34.574Z,11.58
2022-08-03T02:11:21.297Z,11.62
2022-08-03T02:12:20.262Z,11.65
2022-08-03T02:13:20.253Z,11.44
2022-08-03T02:14:20.237Z,11.28
2022-08-03T02:15:20.242Z,11.15
2022-08-03T02:16:20.219Z,11.00
2022-08-03T02:17:39.647Z,10.81
2022-08-03T02:18:21.181Z,10.78
2022-08-03T02:19:20.171Z,10.61
2022-08-03T02:20:20.158Z,10.54
2022-08-03T02:21:55.828Z,10.55
2022-08-03T02:22:21.171Z,10.38
2022-08-03T02:23:20.127Z,10.12
2022-08-03T02:24:20.129Z,9.90
2022-08-03T02:25:20.123Z,9.76
2022-08-03T02:26:20.090Z,9.55
2022-08-03T02:27:20.089Z,9.50
2022-08-03T02:28:20.211Z,9.58
2022-08-03T02:29:20.056Z,10.10
2022-08-03T02:30:20.036Z,10.63
2022-08-03T02:31:20.037Z,11.13
2022-08-03T02:32:20.047Z,11.49
2022-08-03T02:33:20.025Z,11.88
2022-08-03T02:34:19.995Z,12.21
2022-08-03T02:35:20.011Z,12.50
2022-08-03T02:36:19.966Z,12.83
2022-08-03T02:37:19.958Z,13.21
2022-08-03T02:38:19.965Z,13.50
2022-08-03T02:39:19.959Z,13.70
2022-08-03T02:40:19.936Z,13.92
2022-08-03T02:41:19.925Z,14.13
2022-08-03T02:42:19.984Z,14.32
2022-08-03T02:43:19.905Z,14.57
2022-08-03T02:44:19.900Z,14.68
2022-08-03T02:45:19.858Z,14.68
2022-08-03T02:46:19.865Z,14.60
2022-08-03T02:47:19.875Z,14.56
2022-08-03T02:48:19.851Z,14.68
2022-08-03T02:49:42.658Z,14.39
2022-08-03T02:50:20.841Z,14.29
2022-08-03T02:51:19.801Z,14.13
2022-08-03T02:52:19.790Z,14.00
2022-08-03T02:53:19.790Z,13.79
2022-08-03T02:54:19.810Z,13.61
2022-08-03T02:55:19.757Z,13.49
2022-08-03T02:56:19.738Z,13.36
2022-08-03T02:57:19.743Z,13.28
2022-08-03T02:58:19.724Z,13.34
2022-08-03T02:59:19.721Z,13.91
2022-08-03T03:00:27.853Z,14.38
2022-08-03T03:01:20.782Z,14.94
2022-08-03T03:02:19.674Z,15.40
2022-08-03T03:03:19.772Z,15.96
2022-08-03T03:04:19.726Z,16.35
2022-08-03T03:05:55.894Z,16.61
2022-08-03T03:06:20.624Z,16.81
2022-08-03T03:07:19.615Z,16.78
2022-08-03T03:08:20.681Z,16.64
2022-08-03T03:09:19.593Z,16.46
2022-08-03T03:10:19.592Z,16.22
2022-08-03T03:11:19.571Z,16.05
2022-08-03T03:12:19.569Z,16.04
2022-08-03T03:13:19.544Z,15.97
2022-08-03T03:14:19.557Z,15.88
2022-08-03T03:15:20.555Z,15.85
2022-08-03T03:16:19.514Z,15.91
2022-08-03T03:17:19.505Z,15.72
2022-08-03T03:18:22.557Z,15.51
2022-08-03T03:19:19.481Z,15.41
2022-08-03T03:20:29.034Z,15.14
2022-08-03T03:21:20.487Z,14.88
2022-08-03T03:22:19.443Z,14.58
2022-08-03T03:23:19.436Z,14.42
2022-08-03T03:24:19.405Z,14.28
2022-08-03T03:25:19.407Z,14.11
2022-08-03T03:26:19.421Z,13.94
2022-08-03T03:27:19.398Z,13.90
2022-08-03T03:28:19.370Z,13.73
2022-08-03T03:29:19.357Z,13.58
2022-08-03T03:30:19.373Z,13.39
2022-08-03T03:31:19.357Z,13.20
2022-08-03T03:32:19.335Z,12.99
2022-08-03T03:33:19.306Z,12.59
2022-08-03T03:34:19.311Z,12.38
2022-08-03T03:35:19.286Z,12.20
2022-08-03T03:36:19.311Z,12.18
2022-08-03T03:37:19.270Z,12.15
2022-08-03T03:38:19.258Z,12.15
2022-08-03T03:39:19.243Z,12.08
2022-08-03T03:40:19.259Z,12.02
2022-08-03T03:41:19.244Z,11.93
2022-08-03T03:42:19.203Z,11.74
2022-08-03T03:43:19.213Z,11.62
2022-08-03T03:44:19.180Z,11.51
2022-08-03T03:45:19.179Z,11.32
2022-08-03T03:46:19.175Z,11.15
2022-08-03T03:47:19.148Z,11.00
2022-08-03T03:48:20.146Z,10.73
2022-08-03T03:49:19.155Z,10.47
2022-08-03T03:50:19.123Z,10.16
2022-08-03T03:51:19.120Z,9.96
2022-08-03T03:52:19.088Z,9.70
2022-08-03T03:53:19.096Z,9.51
2022-08-03T03:54:19.062Z,9.38
2022-08-03T03:55:19.094Z,9.20
2022-08-03T03:56:19.081Z,9.12
2022-08-03T03:57:19.021Z,9.01
2022-08-03T03:58:19.010Z,8.92
2022-08-03T03:59:19.012Z,8.80
2022-08-03T04:00:18.999Z,8.74
2022-08-03T04:01:19.144Z,8.71
2022-08-03T04:02:18.984Z,8.69
2022-08-03T04:03:18.950Z,8.72
2022-08-03T04:04:18.950Z,8.74
2022-08-03T04:05:18.942Z,8.77
2022-08-03T04:06:18.940Z,8.82
2022-08-03T04:07:18.909Z,8.78
2022-08-03T04:08:18.895Z,8.77
2022-08-03T04:09:18.911Z,8.62
2022-08-03T04:10:18.874Z,8.56
2022-08-03T04:11:18.884Z,8.53
2022-08-03T04:12:18.844Z,8.53
2022-08-03T04:13:18.849Z,8.59
2022-08-03T04:14:18.824Z,8.72
2022-08-03T04:15:18.820Z,8.86
2022-08-03T04:16:18.822Z,8.99
2022-08-03T04:17:18.814Z,9.10
2022-08-03T04:18:18.793Z,9.14
2022-08-03T04:19:23.059Z,9.31
2022-08-03T04:20:18.759Z,9.37
2022-08-03T04:21:18.748Z,9.40
2022-08-03T04:22:18.891Z,9.42
2022-08-03T04:23:18.751Z,9.39
2022-08-03T04:24:18.713Z,9.48
2022-08-03T04:25:18.697Z,9.49
2022-08-03T04:26:18.676Z,9.44
2022-08-03T04:27:18.689Z,9.20
2022-08-03T04:28:31.276Z,8.99
2022-08-03T04:29:19.652Z,8.80
2022-08-03T04:30:18.641Z,8.68
2022-08-03T04:31:18.661Z,8.52
2022-08-03T04:32:19.055Z,8.37
2022-08-03T04:33:18.601Z,8.26
2022-08-03T04:34:18.601Z,8.15
2022-08-03T04:35:18.609Z,8.05
2022-08-03T04:36:18.568Z,8.00
2022-08-03T04:37:18.558Z,7.97
2022-08-03T04:38:18.566Z,7.94
2022-08-03T04:39:18.538Z,7.85
2022-08-03T04:40:18.560Z,7.82
2022-08-03T04:41:18.540Z,7.75
2022-08-03T04:42:18.673Z,7.68
2022-08-03T04:43:18.501Z,7.68
2022-08-03T04:44:18.472Z,7.67
2022-08-03T04:45:18.470Z,7.65
2022-08-03T04:46:18.480Z,7.64
2022-08-03T04:47:18.455Z,7.62
2022-08-03T04:48:18.424Z,7.64
2022-08-03T04:49:18.477Z,7.64
2022-08-03T04:50:21.496Z,7.66
2022-08-03T04:51:18.395Z,7.66
2022-08-03T04:52:18.433Z,7.67
2022-08-03T04:53:18.370Z,7.70
2022-08-03T04:54:18.360Z,7.68
2022-08-03T04:55:18.361Z,7.72
2022-08-03T04:56:18.319Z,7.73
2022-08-03T04:57:23.045Z,7.74
2022-08-03T04:58:19.333Z,7.77
2022-08-03T04:59:18.291Z,7.86
2022-08-03T05:00:18.286Z,7.88
2022-08-03T05:01:18.308Z,7.86
2022-08-03T05:02:18.612Z,7.82
2022-08-03T05:03:20.127Z,7.80
2022-08-03T05:04:19.231Z,7.93
2022-08-03T05:05:18.213Z,7.95
2022-08-03T05:06:18.227Z,7.87
2022-08-03T05:07:22.706Z,7.90
2022-08-03T05:08:20.371Z,8.00
2022-08-03T05:09:22.841Z,8.06
2022-08-03T05:10:19.192Z,8.04
2022-08-03T05:11:18.168Z,8.03
2022-08-03T05:12:18.422Z,7.97
2022-08-03T05:13:18.144Z,7.92
2022-08-03T05:14:18.125Z,7.89
2022-08-03T05:15:19.109Z,7.99
2022-08-03T05:16:18.096Z,8.08
2022-08-03T05:17:18.079Z,8.13
2022-08-03T05:18:18.104Z,8.15
2022-08-03T05:19:18.085Z,8.29
2022-08-03T05:20:19.133Z,8.54
2022-08-03T05:21:18.076Z,8.85
2022-08-03T05:22:18.175Z,9.05
2022-08-03T05:23:18.045Z,9.16
2022-08-03T05:24:18.039Z,9.32
2022-08-03T05:25:19.319Z,9.49
2022-08-03T05:26:18.037Z,9.52
2022-08-03T05:27:17.971Z,9.67
2022-08-03T05:28:17.967Z,9.88
2022-08-03T05:29:17.957Z,10.01
2022-08-03T05:30:29.703Z,10.20
2022-08-03T05:31:18.916Z,10.42
2022-08-03T05:32:18.241Z,10.60
2022-08-03T05:33:17.910Z,10.81
2022-08-03T05:34:17.907Z,10.77
2022-08-03T05:35:55.881Z,10.63
2022-08-03T05:36:18.878Z,10.50
2022-08-03T05:37:17.888Z,10.34
2022-08-03T05:38:23.754Z,10.24
2022-08-03T05:39:18.834Z,10.18
2022-08-03T05:40:17.831Z,10.12
2022-08-03T05:41:21.924Z,10.06
2022-08-03T05:42:18.815Z,10.12
2022-08-03T05:43:17.799Z,10.26
2022-08-03T05:44:17.791Z,10.33
2022-08-03T05:45:17.754Z,10.50
2022-08-03T05:46:17.760Z,10.55
2022-08-03T05:47:17.772Z,10.65
2022-08-03T05:48:17.743Z,10.73
2022-08-03T05:49:17.734Z,10.84
2022-08-03T05:50:17.723Z,11.13
2022-08-03T05:51:17.702Z,11.62
2022-08-03T05:52:18.429Z,12.25
2022-08-03T05:53:17.671Z,13.23
2022-08-03T05:54:17.694Z,14.19
2022-08-03T05:55:17.656Z,14.98
2022-08-03T05:56:17.655Z,15.93
2022-08-03T05:57:17.684Z,16.50
2022-08-03T05:58:17.624Z,17.00
2022-08-03T05:59:37.678Z,17.16
2022-08-03T06:00:18.595Z,16.78
2022-08-03T06:01:17.696Z,16.61
2022-08-03T06:02:17.780Z,16.53
2022-08-03T06:03:17.569Z,17.25
2022-08-03T06:04:17.580Z,18.26
2022-08-03T06:05:17.547Z,19.07
2022-08-03T06:06:17.528Z,19.68
2022-08-03T06:07:17.506Z,20.54
2022-08-03T06:08:17.510Z,20.83
2022-08-03T06:09:17.497Z,21.18
2022-08-03T06:10:37.096Z,21.36
2022-08-03T06:11:18.468Z,21.62
2022-08-03T06:12:17.530Z,21.67
2022-08-03T06:13:17.442Z,21.80
2022-08-03T06:14:17.442Z,21.91
2022-08-03T06:15:17.433Z,22.12
2022-08-03T06:16:17.410Z,22.33
2022-08-03T06:17:17.409Z,22.60
2022-08-03T06:18:17.394Z,22.57
2022-08-03T06:19:17.376Z,21.89
2022-08-03T06:20:17.410Z,20.58
2022-08-03T06:21:17.338Z,20.15
2022-08-03T06:22:17.670Z,20.44
2022-08-03T06:23:18.008Z,20.89
2022-08-03T06:24:17.323Z,21.38
2022-08-03T06:25:17.321Z,21.58
2022-08-03T06:26:17.318Z,21.60
2022-08-03T06:27:17.284Z,21.67
2022-08-03T06:28:51.436Z,22.43
2022-08-03T06:29:18.256Z,23.32
2022-08-03T06:30:21.039Z,24.45
2022-08-03T06:31:17.257Z,25.59
2022-08-03T06:32:17.225Z,26.80
2022-08-03T06:33:17.220Z,27.70
2022-08-03T06:34:34.447Z,28.14
2022-08-03T06:35:18.197Z,28.92
2022-08-03T06:36:17.211Z,30.16
2022-08-03T06:37:17.171Z,31.54
2022-08-03T06:38:17.158Z,32.59
2022-08-03T06:39:17.167Z,32.92
2022-08-03T06:40:21.911Z,33.18
2022-08-03T06:41:18.177Z,33.82
2022-08-03T06:42:17.413Z,35.27
2022-08-03T06:43:17.109Z,37.13
2022-08-03T06:44:17.098Z,38.42
2022-08-03T06:45:17.096Z,39.80
2022-08-03T06:46:17.134Z,41.41
2022-08-03T06:47:17.046Z,41.78
2022-08-03T06:48:17.059Z,41.82
2022-08-03T06:49:17.160Z,42.07
2022-08-03T06:50:19.049Z,41.70
2022-08-03T06:51:17.064Z,39.96
2022-08-03T06:52:37.640Z,37.47
2022-08-03T06:53:19.240Z,35.38
2022-08-03T06:54:16.984Z,35.60
2022-08-03T06:55:16.964Z,37.43
2022-08-03T06:56:16.961Z,39.92
2022-08-03T06:57:16.971Z,42.84
2022-08-03T06:58:16.945Z,46.13
2022-08-03T07:00:08.895Z,47.22
2022-08-03T07:00:17.945Z,48.58
2022-08-03T07:01:18.873Z,47.73
2022-08-03T07:02:18.958Z,47.70
2022-08-03T07:03:16.876Z,48.92
2022-08-03T07:04:16.875Z,48.67
2022-08-03T07:05:16.885Z,48.22
2022-08-03T07:06:16.878Z,47.70
2022-08-03T07:07:16.836Z,48.64
2022-08-03T07:08:16.846Z,50.94
2022-08-03T07:09:17.819Z,53.03
2022-08-03T07:10:16.827Z,53.47
2022-08-03T07:11:16.809Z,53.43
2022-08-03T07:12:16.968Z,55.66
2022-08-03T07:13:16.807Z,57.72
2022-08-03T07:14:16.758Z,60.60
2022-08-03T07:15:55.099Z,64.40
2022-08-03T07:16:17.744Z,66.60
2022-08-03T07:17:16.728Z,67.13
2022-08-03T07:18:16.737Z,67.89
2022-08-03T07:19:16.729Z,72.77
2022-08-03T07:20:16.697Z,77.03
2022-08-03T07:21:16.692Z,80.42
2022-08-03T07:22:16.927Z,82.39
2022-08-03T07:23:19.361Z,83.87
2022-08-03T07:24:16.651Z,83.96
2022-08-03T07:25:16.637Z,84.13
2022-08-03T07:26:16.627Z,85.58
2022-08-03T07:27:16.611Z,88.46
2022-08-03T07:28:16.631Z,87.72
2022-08-03T07:29:16.607Z,86.64
2022-08-03T07:30:16.576Z,89.03
2022-08-03T07:31:16.571Z,89.31
2022-08-03T07:32:16.860Z,90.07
2022-08-03T07:33:16.567Z,88.46
2022-08-03T07:34:16.545Z,82.07
2022-08-03T07:35:24.718Z,62.17
2022-08-03T07:36:17.542Z,52.73
2022-08-03T07:37:16.499Z,50.21
2022-08-03T07:38:16.507Z,54.47
2022-08-03T07:39:17.908Z,59.86
2022-08-03T07:40:16.486Z,62.44
2022-08-03T07:41:16.482Z,61.26
2022-08-03T07:42:16.683Z,64.21
2022-08-03T07:43:16.456Z,70.39
2022-08-03T07:44:16.433Z,76.96
2022-08-03T07:45:16.617Z,80.58
2022-08-03T07:46:16.411Z,83.62
2022-08-03T07:47:22.430Z,87.63
2022-08-03T07:48:17.430Z,89.79
2022-08-03T07:49:16.434Z,91.95
2022-08-03T07:50:16.362Z,93.69
2022-08-03T07:51:16.372Z,93.58
2022-08-03T07:52:16.676Z,94.61
2022-08-03T07:53:16.365Z,95.07
2022-08-03T07:54:16.325Z,93.69
2022-08-03T07:55:16.322Z,91.95
2022-08-03T07:56:16.299Z,86.73
2022-08-03T07:57:16.283Z,84.38
2022-08-03T07:58:18.177Z,82.23
2022-08-03T07:59:17.277Z,80.12
2022-08-03T08:00:16.251Z,81.20
2022-08-03T08:01:16.282Z,82.80
2022-08-03T08:02:16.407Z,77.03
2022-08-03T08:03:16.254Z,70.39
2022-08-03T08:04:16.232Z,61.35
2022-08-03T08:05:16.205Z,53.74
2022-08-03T08:06:16.183Z,49.88
2022-08-03T08:07:16.175Z,52.01
2022-08-03T08:08:16.183Z,57.72
2022-08-03T08:09:16.154Z,59.99
2022-08-03T08:10:16.143Z,54.44
2022-08-03T08:11:16.137Z,50.48
2022-08-03T08:12:16.460Z,47.92
2022-08-03T08:13:16.127Z,47.73
2022-08-03T08:14:16.128Z,48.33
2022-08-03T08:15:16.111Z,46.49
2022-08-03T08:16:16.077Z,46.08
2022-08-03T08:17:16.076Z,44.15
2022-08-03T08:18:16.092Z,41.66
2022-08-03T08:19:16.038Z,38.60
2022-08-03T08:20:16.032Z,35.30
2022-08-03T08:21:17.020Z,32.84
2022-08-03T08:22:16.230Z,32.34
2022-08-03T08:23:37.022Z,32.36
2022-08-03T08:24:19.701Z,34.43
2022-08-03T08:25:15.989Z,35.35
2022-08-03T08:26:15.973Z,36.81
2022-08-03T08:27:15.994Z,37.73
2022-08-03T08:28:22.541Z,38.32
2022-08-03T08:29:16.952Z,38.21
2022-08-03T08:30:19.123Z,38.85
2022-08-03T08:31:15.913Z,39.17
2022-08-03T08:32:16.202Z,38.39
2022-08-03T08:33:22.329Z,36.58
2022-08-03T08:34:16.903Z,35.12
2022-08-03T08:35:15.868Z,38.14
2022-08-03T08:36:15.929Z,42.50
2022-08-03T08:37:15.851Z,48.61
2022-08-03T08:38:15.851Z,56.67
2022-08-03T08:39:17.591Z,58.33
2022-08-03T08:40:15.825Z,57.57
2022-08-03T08:41:15.804Z,57.41
2022-08-03T08:42:15.974Z,60.12
2022-08-03T08:43:15.816Z,61.12
2022-08-03T08:44:15.802Z,59.99
2022-08-03T08:45:15.760Z,58.82
2022-08-03T08:46:23.833Z,58.78
2022-08-03T08:47:16.754Z,61.12
2022-08-03T08:48:15.716Z,66.18
2022-08-03T08:49:15.750Z,70.27
2022-08-03T08:50:27.978Z,77.96
2022-08-03T08:51:16.701Z,84.81
2022-08-03T08:52:25.369Z,93.27
2022-08-03T08:53:18.960Z,99.96
2022-08-03T08:54:15.657Z,106.27
2022-08-03T08:55:15.669Z,109.53
2022-08-03T08:56:15.655Z,113.67
2022-08-03T08:57:33.568Z,117.90
2022-08-03T08:58:20.826Z,122.45
2022-08-03T08:59:15.743Z,126.89
2022-08-03T09:00:15.619Z,131.86
2022-08-03T09:01:15.622Z,137.24
2022-08-03T09:02:15.787Z,142.60
2022-08-03T09:03:22.564Z,143.82
2022-08-03T09:04:16.548Z,147.87
2022-08-03T09:05:15.545Z,153.26
2022-08-03T09:06:15.556Z,155.53
2022-08-03T09:07:20.412Z,159.66
2022-08-03T09:08:16.515Z,163.39
2022-08-03T09:10:11.971Z,165.31
2022-08-03T09:10:16.518Z,163.39
2022-08-03T09:11:15.493Z,157.57
2022-08-03T09:12:39.133Z,157.13
2022-08-03T09:13:16.451Z,162.60
2022-08-03T09:14:39.289Z,166.62
2022-08-03T09:15:17.367Z,168.29
2022-08-03T09:16:15.452Z,155.96
2022-08-03T09:17:17.327Z,148.91
2022-08-03T09:18:15.397Z,146.07
2022-08-03T09:19:15.385Z,151.87
2022-08-03T09:20:15.457Z,161.04
2022-08-03T09:21:30.668Z,168.97
2022-08-03T09:22:16.357Z,173.15
2022-08-03T09:23:51.749Z,178.48
2022-08-03T09:24:31.095Z,183.74
2022-08-03T09:25:24.302Z,188.09
2022-08-03T09:26:16.316Z,187.87
2022-08-03T09:27:15.439Z,186.39
2022-08-03T09:28:59.704Z,185.55
2022-08-03T09:29:16.288Z,185.97
2022-08-03T09:30:33.365Z,180.78
2022-08-03T09:31:16.238Z,165.64
2022-08-03T09:32:15.261Z,157.71
2022-08-03T09:33:15.230Z,155.10
2022-08-03T09:34:15.230Z,138.26
2022-08-03T09:35:16.050Z,130.94
2022-08-03T09:36:15.212Z,122.90
2022-08-03T09:37:15.366Z,130.23
2022-08-03T09:38:15.169Z,139.52
2022-08-03T09:39:15.217Z,156.40
2022-08-03T09:40:15.152Z,168.80
2022-08-03T09:41:15.169Z,173.32
2022-08-03T09:42:15.501Z,176.60
2022-08-03T09:43:15.122Z,186.18
2022-08-03T09:44:24.128Z,188.52
2022-08-03T09:45:16.112Z,194.39
2022-08-03T09:46:15.111Z,185.36
2022-08-03T09:47:15.219Z,181.17
2022-08-03T09:48:15.051Z,169.99
2022-08-03T09:49:15.083Z,152.56
2022-08-03T09:50:15.064Z,163.07
2022-08-03T09:52:18.700Z,174.58
2022-08-03T09:52:36.806Z,192.47
2022-08-03T09:53:16.000Z,205.64
2022-08-03T09:54:20.296Z,208.89
2022-08-03T09:55:23.807Z,198.12
2022-08-03T09:56:35.218Z,191.80
2022-08-03T09:57:16.278Z,196.24
2022-08-03T09:58:14.955Z,176.60
2022-08-03T09:59:14.933Z,141.04
2022-08-03T10:00:14.911Z,127.27
2022-08-03T10:01:24.501Z,121.83
2022-08-03T10:02:15.931Z,122.99
2022-08-03T10:03:14.891Z,132.70
2022-08-03T10:04:14.879Z,139.18
2022-08-03T10:05:17.515Z,143.21
2022-08-03T10:06:15.845Z,167.62
2022-08-03T10:07:14.837Z,182.35
2022-08-03T10:08:14.866Z,195.66
2022-08-03T10:09:14.820Z,211.15
2022-08-03T10:10:30.937Z,215.84
2022-08-03T10:11:15.800Z,218.70
2022-08-03T10:12:14.782Z,228.52
2022-08-03T10:13:14.790Z,241.90
2022-08-03T10:14:14.759Z,248.45
2022-08-03T10:16:22.081Z,258.15
2022-08-03T10:16:23.718Z,253.01
2022-08-03T10:17:15.928Z,266.69
2022-08-03T10:18:14.766Z,271.51
2022-08-03T10:19:14.705Z,274.67
2022-08-03T10:20:14.700Z,279.07
2022-08-03T10:21:14.705Z,284.11
2022-08-03T10:22:14.686Z,287.57
2022-08-03T10:23:14.655Z,290.09
2022-08-03T10:24:14.662Z,292.40
2022-08-03T10:25:14.648Z,292.14
2022-08-03T10:26:14.631Z,294.75
2022-08-03T10:27:14.644Z,294.75
2022-08-03T10:28:14.627Z,295.54
2022-08-03T10:29:14.612Z,293.18
2022-08-03T10:30:14.577Z,295.27
2022-08-03T10:31:14.590Z,295.01
2022-08-03T10:32:14.549Z,292.14
2022-08-03T10:33:50.158Z,289.33
2022-08-03T10:34:15.547Z,291.88
2022-08-03T10:35:20.412Z,294.48
2022-08-03T10:36:15.524Z,296.86
2022-08-03T10:37:14.530Z,299.55
2022-08-03T10:38:14.574Z,300.10
2022-08-03T10:39:16.049Z,301.47
2022-08-03T10:40:27.931Z,305.36
2022-08-03T10:41:15.463Z,305.93
2022-08-03T10:42:14.922Z,307.35
2022-08-03T10:43:14.453Z,306.78
2022-08-03T10:44:14.470Z,309.95
2022-08-03T10:45:14.428Z,309.66
2022-08-03T10:46:14.404Z,310.82
2022-08-03T10:47:14.392Z,310.24
2022-08-03T10:48:14.380Z,310.53
2022-08-03T10:49:14.432Z,308.50
2022-08-03T10:50:14.364Z,306.50
2022-08-03T10:51:14.370Z,308.50
2022-08-03T10:52:31.465Z,309.95
2022-08-03T10:53:16.628Z,309.37
2022-08-03T10:54:14.341Z,309.37
2022-08-03T10:55:14.345Z,303.68
2022-08-03T10:56:14.287Z,301.19
2022-08-03T10:57:14.798Z,304.80
2022-08-03T10:58:14.257Z,309.08
2022-08-03T10:59:27.940Z,311.11
2022-08-03T11:00:15.289Z,312.88
2022-08-03T11:01:14.273Z,307.35
2022-08-03T11:02:14.262Z,309.37
2022-08-03T11:03:14.207Z,309.37
2022-08-03T11:04:17.005Z,307.64
2022-08-03T11:05:14.207Z,304.24
2022-08-03T11:06:14.191Z,296.07
2022-08-03T11:07:14.193Z,295.54
2022-08-03T11:08:14.153Z,297.13
2022-08-03T11:09:14.148Z,298.47
2022-08-03T11:10:14.137Z,301.47
2022-08-03T11:11:14.137Z,306.21
2022-08-03T11:12:14.100Z,309.08
2022-08-03T11:13:14.101Z,312.58
2022-08-03T11:14:14.085Z,315.27
2022-08-03T11:15:14.077Z,318.92
2022-08-03T11:16:19.798Z,322.34
2022-08-03T11:17:15.053Z,322.65
2022-08-03T11:18:14.043Z,321.71
2022-08-03T11:19:14.025Z,322.97
2022-08-03T11:20:14.054Z,324.23
2022-08-03T11:21:14.023Z,324.55
2022-08-03T11:22:13.993Z,320.46
2022-08-03T11:23:13.994Z,317.69
2022-08-03T11:24:13.987Z,313.77
2022-08-03T11:25:54.345Z,306.50
2022-08-03T11:26:14.975Z,307.92
2022-08-03T11:27:13.942Z,313.18
2022-08-03T11:28:13.928Z,317.39
2022-08-03T11:29:13.947Z,321.40
2022-08-03T11:30:13.915Z,320.46
2022-08-03T11:31:27.197Z,322.65
2022-08-03T11:32:19.426Z,326.80
2022-08-03T11:33:13.879Z,330.39
2022-08-03T11:34:13.872Z,333.73
2022-08-03T11:35:13.847Z,334.40
2022-08-03T11:36:13.838Z,334.40
2022-08-03T11:37:14.855Z,331.39
2022-08-03T11:38:13.835Z,330.72
2022-08-03T11:39:16.684Z,330.39
2022-08-03T11:40:13.820Z,332.39
2022-08-03T11:41:13.781Z,331.05
2022-08-03T11:42:13.777Z,322.65
2022-08-03T11:43:13.836Z,305.36
2022-08-03T11:44:13.746Z,300.37
2022-08-03T11:45:13.768Z,295.01
2022-08-03T11:46:13.748Z,276.97
2022-08-03T11:47:14.713Z,277.43
2022-08-03T11:48:13.723Z,271.51
2022-08-03T11:49:13.737Z,270.40
2022-08-03T11:50:13.683Z,274.67
2022-08-03T11:51:13.682Z,281.93
2022-08-03T11:52:13.661Z,292.92
2022-08-03T11:53:13.693Z,305.65
2022-08-03T11:54:13.642Z,311.11
2022-08-03T11:55:13.639Z,313.47
2022-08-03T11:56:13.625Z,316.17
2022-08-03T11:57:13.623Z,316.47
2022-08-03T11:59:01.644Z,322.65
2022-08-03T11:59:20.181Z,328.10
2022-08-03T12:00:14.575Z,330.72
2022-08-03T12:01:13.578Z,329.40
2022-08-03T12:02:13.564Z,331.39
2022-08-03T12:03:13.663Z,332.39
2022-08-03T12:04:13.528Z,333.39
2022-08-03T12:05:13.532Z,333.73
2022-08-03T12:06:13.528Z,336.79
2022-08-03T12:07:13.552Z,334.40
2022-08-03T12:08:14.529Z,329.40
2022-08-03T12:09:13.532Z,331.72
2022-08-03T12:10:13.527Z,333.73
2022-08-03T12:11:13.464Z,334.40
2022-08-03T12:12:13.468Z,335.76
2022-08-03T12:13:56.685Z,337.82
2022-08-03T12:14:49.050Z,336.10
2022-08-03T12:15:14.409Z,333.05
2022-08-03T12:16:13.407Z,332.39
2022-08-03T12:17:13.391Z,328.75
2022-08-03T12:18:13.394Z,328.10
2022-08-03T12:19:13.400Z,330.39
2022-08-03T12:20:13.372Z,329.40
2022-08-03T12:21:13.350Z,325.51
2022-08-03T12:22:13.334Z,329.40
2022-08-03T12:23:13.324Z,330.06
2022-08-03T12:24:13.331Z,330.72
2022-08-03T12:25:13.313Z,334.40
2022-08-03T12:26:13.313Z,333.05
2022-08-03T12:27:13.290Z,335.08
2022-08-03T12:28:36.114Z,336.79
2022-08-03T12:29:14.266Z,340.25
2022-08-03T12:30:13.257Z,341.66
2022-08-03T12:31:13.234Z,338.86
2022-08-03T12:32:13.242Z,336.44
2022-08-03T12:33:13.214Z,340.95
2022-08-03T12:34:13.225Z,341.66
2022-08-03T12:35:13.197Z,343.08
2022-08-03T12:36:13.206Z,342.01
2022-08-03T12:37:22.203Z,332.39
2022-08-03T12:38:14.183Z,335.42
2022-08-03T12:39:13.189Z,341.31
2022-08-03T12:40:17.813Z,339.90
2022-08-03T12:41:14.139Z,341.66
2022-08-03T12:42:13.145Z,329.73
2022-08-03T12:43:13.114Z,332.39
2022-08-03T12:44:13.121Z,334.40
2022-08-03T12:45:13.124Z,332.72
2022-08-03T12:46:13.081Z,333.05
2022-08-03T12:47:13.159Z,331.05
2022-08-03T12:48:13.052Z,330.72